Time;durP1;ratioP1;P1;durP2;ratioP2;P2;SDS_P1;SDS_P2;PMS_P1;PMS_P2;Temp;Humidity;BMP_temperature;BMP_pressure;BME280_temperature;BME280_humidity;BME280_pressure;Samples;Min_cycle;Max_cycle;Signal;HPM_P1;HPM_P2
2023/08/04 00:00:54;;;;;;;6.10;2.60;;;;;;;19.03;100.00;98622.10;109542;1254;66452;-67
2023/08/04 00:03:21;;;;;;;4.70;3.40;;;;;;;19.00;100.00;98633.17;109348;1253;70975;-68
2023/08/04 00:05:49;;;;;;;8.20;3.00;;;;;;;19.00;100.00;98644.88;109399;1254;61648;-68
2023/08/04 00:08:17;;;;;;;5.90;3.00;;;;;;;18.99;100.00;98644.64;109467;1254;58896;-69
2023/08/04 00:10:44;;;;;;;5.90;3.30;;;;;;;18.94;100.00;98644.86;109384;1254;74654;-68
2023/08/04 00:13:11;;;;;;;6.50;3.50;;;;;;;18.90;100.00;98645.23;109433;1254;67604;-67
2023/08/04 00:15:39;;;;;;;3.80;3.20;;;;;;;18.87;100.00;98641.40;109475;1254;71896;-68
2023/08/04 00:18:06;;;;;;;3.90;2.90;;;;;;;18.83;100.00;98638.38;109411;1253;59715;-68
2023/08/04 00:20:34;;;;;;;3.80;2.80;;;;;;;18.78;100.00;98644.53;109398;1255;60323;-67
2023/08/04 00:23:01;;;;;;;3.80;2.70;;;;;;;18.75;100.00;98648.90;109414;1253;74693;-68
2023/08/04 00:25:29;;;;;;;3.40;2.90;;;;;;;18.71;100.00;98652.88;109496;1253;66435;-68
2023/08/04 00:27:56;;;;;;;6.10;3.10;;;;;;;18.68;100.00;98650.44;109438;1254;72725;-68
2023/08/04 00:30:23;;;;;;;3.70;2.60;;;;;;;18.64;100.00;98649.83;109376;1253;61754;-68
2023/08/04 00:32:51;;;;;;;4.90;2.80;;;;;;;18.62;100.00;98653.93;109401;1254;58903;-68
2023/08/04 00:35:18;;;;;;;5.70;2.80;;;;;;;18.58;100.00;98653.02;109415;1253;73775;-68
2023/08/04 00:37:46;;;;;;;7.60;2.90;;;;;;;18.54;100.00;98643.41;109471;1254;66305;-68
2023/08/04 00:40:13;;;;;;;4.40;2.80;;;;;;;18.49;100.00;98644.02;109467;1254;71590;-68
2023/08/04 00:42:40;;;;;;;3.60;2.80;;;;;;;18.45;100.00;98646.23;109423;1254;61692;-69
2023/08/04 00:45:08;;;;;;;6.00;2.30;;;;;;;18.46;100.00;98645.50;109420;1253;59988;-69
2023/08/04 00:47:37;;;;;;;4.20;2.80;;;;;;;18.54;100.00;98641.84;109383;1253;73354;-68
2023/08/04 00:50:06;;;;;;;4.00;2.20;;;;;;;18.63;100.00;98641.73;109357;1253;67714;-69
2023/08/04 00:52:34;;;;;;;3.30;3.00;;;;;;;18.71;100.00;98646.25;109375;1253;73560;-69
2023/08/04 00:55:02;;;;;;;3.70;2.30;;;;;;;18.80;100.00;98651.19;109287;1253;60483;-68
2023/08/04 00:57:29;;;;;;;7.70;2.30;;;;;;;18.84;100.00;98654.29;109524;1253;60681;-68
2023/08/04 00:59:56;;;;;;;4.60;2.70;;;;;;;18.83;100.00;98650.49;109461;1253;73376;-68
2023/08/04 01:02:24;;;;;;;4.70;2.70;;;;;;;18.79;100.00;98651.78;109435;1254;66376;-68
2023/08/04 01:04:51;;;;;;;4.70;2.40;;;;;;;18.76;100.00;98652.89;109487;1253;72965;-68
2023/08/04 01:07:19;;;;;;;2.90;2.10;;;;;;;18.69;100.00;98652.08;109368;1253;61726;-68
2023/08/04 01:09:55;;;;;;;3.20;2.30;;;;;;;18.58;100.00;98650.58;109445;1253;60075;-68
2023/08/04 01:12:31;;;;;;;3.10;2.40;;;;;;;18.47;100.00;98655.59;109343;1252;74628;-68
2023/08/04 01:14:58;;;;;;;4.00;2.30;;;;;;;18.40;100.00;98660.18;109422;1253;66337;-68
2023/08/04 01:17:28;;;;;;;4.30;2.80;;;;;;;18.32;100.00;98656.95;109274;1253;75166;-69
2023/08/04 01:19:55;;;;;;;6.60;3.00;;;;;;;18.24;100.00;98658.36;109416;1253;59743;-69
2023/08/04 01:22:23;;;;;;;5.00;2.60;;;;;;;18.18;100.00;98668.52;109449;1253;59025;-68
2023/08/04 01:24:51;;;;;;;4.70;2.10;;;;;;;18.12;100.00;98675.13;109338;1253;72796;-68
2023/08/04 01:27:33;;;;;;;4.70;2.30;;;;;;;18.07;100.00;98676.05;109450;1253;68443;-68
2023/08/04 01:30:02;;;;;;;5.10;2.40;;;;;;;18.04;100.00;98679.02;109334;1254;72659;-68
2023/08/04 01:32:32;;;;;;;4.40;2.70;;;;;;;18.01;100.00;98683.84;109332;1254;61678;-68
2023/08/04 01:34:59;;;;;;;2.60;2.40;;;;;;;17.99;100.00;98684.90;109507;1253;58909;-68
2023/08/04 01:37:27;;;;;;;3.20;2.50;;;;;;;17.97;100.00;98682.81;109430;1253;76822;-68
2023/08/04 01:39:54;;;;;;;5.70;2.50;;;;;;;17.92;100.00;98681.41;109399;1254;66293;-68
2023/08/04 01:42:21;;;;;;;3.30;2.40;;;;;;;17.85;100.00;98672.77;109363;1254;72688;-69
2023/08/04 01:44:49;;;;;;;3.60;2.20;;;;;;;17.73;100.00;98667.94;109437;1254;62539;-70
2023/08/04 01:47:16;;;;;;;4.00;2.30;;;;;;;17.62;100.00;98670.38;109395;1253;58908;-69
2023/08/04 01:49:45;;;;;;;3.80;2.50;;;;;;;17.54;100.00;98673.51;109389;1253;73487;-69
2023/08/04 01:52:12;;;;;;;4.90;3.00;;;;;;;17.47;100.00;98678.98;109379;1254;67790;-68
2023/08/04 01:54:40;;;;;;;5.30;3.30;;;;;;;17.42;100.00;98679.77;109286;1254;72725;-69
2023/08/04 01:57:07;;;;;;;3.00;2.60;;;;;;;17.37;100.00;98678.52;109401;1254;61855;-69
2023/08/04 01:59:34;;;;;;;5.50;3.10;;;;;;;17.37;100.00;98680.06;109418;1253;59353;-68
2023/08/04 02:02:02;;;;;;;3.00;2.80;;;;;;;17.38;100.00;98682.04;109392;1253;74778;-69
2023/08/04 02:04:30;;;;;;;4.00;2.60;;;;;;;17.39;100.00;98695.98;109398;1253;67587;-69
2023/08/04 02:06:57;;;;;;;3.50;3.00;;;;;;;17.38;100.00;98693.77;109398;1253;72759;-69
2023/08/04 02:09:27;;;;;;;2.90;2.60;;;;;;;17.37;100.00;98695.56;109344;1252;60388;-69
2023/08/04 02:11:57;;;;;;;3.50;2.40;;;;;;;17.35;100.00;98698.05;109318;1253;59046;-69
2023/08/04 02:14:25;;;;;;;3.40;3.00;;;;;;;17.34;100.00;98702.64;109423;1253;74673;-69
2023/08/04 02:16:52;;;;;;;4.00;2.60;;;;;;;17.34;100.00;98704.90;109456;1254;66471;-68
2023/08/04 02:19:22;;;;;;;3.10;2.60;;;;;;;17.33;100.00;98705.08;109426;1253;71359;-69
2023/08/04 02:21:50;;;;;;;3.30;2.70;;;;;;;17.33;100.00;98700.53;109381;1254;61751;-69
2023/08/04 02:24:18;;;;;;;4.50;3.00;;;;;;;17.35;100.00;98700.89;109417;1253;59199;-68
2023/08/04 02:26:46;;;;;;;2.60;2.40;;;;;;;17.37;100.00;98700.08;109367;1253;74955;-68
2023/08/04 02:29:13;;;;;;;4.80;2.80;;;;;;;17.36;100.00;98700.70;109360;1253;67944;-68
2023/08/04 02:31:41;;;;;;;3.30;3.00;;;;;;;17.33;100.00;98702.89;109425;1252;73160;-68
2023/08/04 02:34:09;;;;;;;3.90;3.40;;;;;;;17.32;100.00;98708.34;109422;1253;62332;-68
2023/08/04 02:36:36;;;;;;;6.00;2.90;;;;;;;17.31;100.00;98710.20;109369;1254;59204;-68
2023/08/04 02:39:03;;;;;;;4.70;3.10;;;;;;;17.28;100.00;98711.38;109408;1253;74625;-68
2023/08/04 02:41:32;;;;;;;4.60;3.20;;;;;;;17.27;100.00;98711.61;109427;1253;67952;-68
2023/08/04 02:44:02;;;;;;;6.80;3.20;;;;;;;17.24;100.00;98711.50;109359;1253;71238;-67
2023/08/04 02:46:30;;;;;;;8.30;3.00;;;;;;;17.17;100.00;98713.47;109402;1253;61687;-67
2023/08/04 02:48:57;;;;;;;3.80;2.70;;;;;;;17.07;100.00;98722.39;109430;1253;60016;-68
2023/08/04 02:51:25;;;;;;;5.30;2.90;;;;;;;16.97;100.00;98720.84;109421;1254;74614;-68
2023/08/04 02:53:52;;;;;;;2.80;2.60;;;;;;;16.88;100.00;98716.64;109415;1253;67564;-68
2023/08/04 02:56:20;;;;;;;6.60;2.80;;;;;;;16.81;100.00;98716.98;109285;1253;71771;-68
2023/08/04 02:58:47;;;;;;;3.50;3.20;;;;;;;16.78;100.00;98720.75;109395;1254;61672;-69
2023/08/04 03:01:15;;;;;;;7.40;3.10;;;;;;;16.82;100.00;98717.80;109402;1253;59017;-69
2023/08/04 03:03:42;;;;;;;4.10;2.90;;;;;;;16.90;100.00;98724.75;109376;1253;74908;-69
2023/08/04 03:06:10;;;;;;;4.60;3.30;;;;;;;17.01;100.00;98730.34;109387;1253;68185;-69
2023/08/04 03:08:37;;;;;;;3.90;3.30;;;;;;;17.13;100.00;98731.15;109388;1253;72741;-69
2023/08/04 03:11:09;;;;;;;3.10;2.80;;;;;;;17.25;100.00;98733.23;109398;1254;60401;-69
2023/08/04 03:13:37;;;;;;;3.60;2.80;;;;;;;17.37;100.00;98738.54;109388;1254;58849;-68
2023/08/04 03:16:05;;;;;;;2.90;2.40;;;;;;;17.50;100.00;98739.16;109365;1253;74217;-69
2023/08/04 03:18:32;;;;;;;6.20;2.90;;;;;;;17.64;100.00;98737.92;109387;1253;67677;-69
2023/08/04 03:21:02;;;;;;;3.70;2.80;;;;;;;17.79;100.00;98741.62;109306;1254;72695;-69
2023/08/04 03:23:30;;;;;;;3.30;3.00;;;;;;;17.97;100.00;98740.77;109360;1254;60870;-68
2023/08/04 03:25:57;;;;;;;2.90;2.60;;;;;;;18.15;100.00;98743.86;109507;1252;58879;-68
2023/08/04 03:28:24;;;;;;;3.30;2.90;;;;;;;18.31;100.00;98749.50;109421;1253;73840;-69
2023/08/04 03:30:52;;;;;;;4.30;3.50;;;;;;;18.51;100.00;98749.14;109428;1253;67050;-68
2023/08/04 03:33:19;;;;;;;3.40;3.00;;;;;;;18.74;100.00;98745.38;109465;1252;72729;-68
2023/08/04 03:35:47;;;;;;;8.20;3.30;;;;;;;18.98;100.00;98743.86;109399;1252;60452;-68
2023/08/04 03:38:14;;;;;;;6.10;3.00;;;;;;;19.19;100.00;98742.94;109383;1257;60080;-68
2023/08/04 03:40:41;;;;;;;8.30;2.70;;;;;;;19.41;100.00;98746.58;109402;1253;73476;-68
2023/08/04 03:43:09;;;;;;;5.40;3.20;;;;;;;19.63;100.00;98743.02;109364;1254;66442;-69
2023/08/04 03:45:36;;;;;;;4.70;3.20;;;;;;;19.84;100.00;98743.21;109364;1254;72786;-68
2023/08/04 03:48:04;;;;;;;7.80;3.20;;;;;;;20.08;100.00;98730.22;109410;1253;60412;-69
2023/08/04 03:50:31;;;;;;;3.90;3.20;;;;;;;20.35;100.00;98729.12;109499;1252;60019;-68
2023/08/04 03:52:59;;;;;;;3.70;3.30;;;;;;;20.62;100.00;98732.45;109408;1254;73359;-67
2023/08/04 03:55:27;;;;;;;3.60;2.90;;;;;;;20.87;100.00;98729.11;109400;1254;66862;-68
2023/08/04 03:57:54;;;;;;;4.60;3.30;;;;;;;21.17;100.00;98730.70;109369;1253;71382;-68
2023/08/04 04:00:21;;;;;;;4.00;3.60;;;;;;;21.50;100.00;98735.96;109462;1252;59193;-69
2023/08/04 04:02:49;;;;;;;3.90;3.20;;;;;;;21.82;100.00;98739.90;109398;1253;58881;-69
2023/08/04 04:05:17;;;;;;;3.50;3.10;;;;;;;22.13;100.00;98741.15;109422;1253;73378;-68
2023/08/04 04:07:45;;;;;;;4.30;3.80;;;;;;;22.47;100.00;98733.08;109494;1252;67876;-68
2023/08/04 04:10:12;;;;;;;4.30;3.90;;;;;;;22.85;100.00;98728.58;109366;1253;72665;-68
2023/08/04 04:12:39;;;;;;;4.30;4.00;;;;;;;23.24;100.00;98725.51;109397;1253;60202;-68
2023/08/04 04:15:07;;;;;;;4.80;4.40;;;;;;;23.61;100.00;98724.23;109419;1253;59046;-68
2023/08/04 04:17:35;;;;;;;4.50;4.10;;;;;;;23.99;100.00;98720.77;109408;1253;74861;-68
2023/08/04 04:20:03;;;;;;;4.10;3.80;;;;;;;24.36;100.00;98721.02;109415;1252;67768;-69
2023/08/04 04:22:30;;;;;;;4.40;3.90;;;;;;;24.70;100.00;98721.13;109349;1254;73236;-69
2023/08/04 04:24:58;;;;;;;8.20;4.40;;;;;;;24.99;100.00;98711.20;109407;1254;58922;-68
2023/08/04 04:27:25;;;;;;;4.60;4.20;;;;;;;25.30;100.00;98709.40;109432;1254;59305;-68
2023/08/04 04:29:53;;;;;;;4.70;4.30;;;;;;;25.58;100.00;98711.55;109525;1253;74605;-68
2023/08/04 04:32:20;;;;;;;4.00;3.70;;;;;;;25.80;100.00;98713.80;109375;1254;67618;-68
2023/08/04 04:34:48;;;;;;;4.30;3.90;;;;;;;25.90;100.00;98710.23;109442;1252;73094;-69
2023/08/04 04:37:15;;;;;;;4.10;3.80;;;;;;;25.79;100.00;98709.40;109344;1253;58974;-69
2023/08/04 04:39:43;;;;;;;4.10;3.80;;;;;;;25.55;100.00;98710.81;109433;1253;58971;-68
2023/08/04 04:42:10;;;;;;;4.80;4.40;;;;;;;25.19;100.00;98713.58;109443;1253;74680;-68
2023/08/04 04:44:37;;;;;;;4.30;3.90;;;;;;;24.77;100.00;98715.95;109399;1253;68853;-68
2023/08/04 04:47:06;;;;;;;4.40;4.10;;;;;;;24.36;100.00;98719.27;109441;1252;73057;-67
2023/08/04 04:49:33;;;;;;;3.90;3.60;;;;;;;24.01;100.00;98728.70;109328;1253;60102;-68
2023/08/04 04:52:01;;;;;;;3.90;3.50;;;;;;;23.85;100.00;98732.09;109456;1253;60001;-68
2023/08/04 04:54:28;;;;;;;4.00;3.60;;;;;;;23.95;100.00;98739.84;109420;1253;74625;-68
2023/08/04 04:56:56;;;;;;;4.20;3.60;;;;;;;24.26;100.00;98740.62;109488;1253;68087;-68
2023/08/04 04:59:23;;;;;;;5.40;3.60;;;;;;;24.61;100.00;98746.25;109372;1254;71427;-68
2023/08/04 05:01:50;;;;;;;3.40;3.10;;;;;;;25.00;100.00;98745.27;109285;1252;60163;-68
2023/08/04 05:04:18;;;;;;;5.40;3.00;;;;;;;25.40;100.00;98736.95;109459;1252;60012;-68
2023/08/04 05:06:45;;;;;;;4.10;3.30;;;;;;;25.78;100.00;98735.61;109410;1252;73309;-68
2023/08/04 05:09:13;;;;;;;3.50;3.20;;;;;;;26.15;100.00;98736.24;109454;1252;67577;-68
2023/08/04 05:11:40;;;;;;;3.80;3.00;;;;;;;26.55;100.00;98737.16;109383;1253;72862;-67
2023/08/04 05:14:07;;;;;;;3.90;3.00;;;;;;;26.89;100.00;98742.91;109380;1253;60231;-67
2023/08/04 05:16:35;;;;;;;3.10;2.80;;;;;;;27.19;100.00;98751.17;109430;1253;58997;-68
2023/08/04 05:19:02;;;;;;;3.30;3.00;;;;;;;27.51;100.00;98747.91;109439;1252;74647;-68
2023/08/04 05:21:30;;;;;;;5.40;3.20;;;;;;;27.78;100.00;98743.85;109409;1252;67766;-69
2023/08/04 05:23:57;;;;;;;3.30;3.00;;;;;;;27.98;100.00;98738.54;109424;1253;72936;-68
2023/08/04 05:26:24;;;;;;;2.80;2.60;;;;;;;28.25;100.00;98744.57;109400;1253;60067;-68
2023/08/04 05:28:52;;;;;;;3.60;2.90;;;;;;;28.46;100.00;98746.83;109529;1252;58959;-68
2023/08/04 05:31:19;;;;;;;3.80;2.60;;;;;;;28.63;100.00;98748.07;109399;1253;73383;-68
2023/08/04 05:33:46;;;;;;;2.80;2.50;;;;;;;28.83;100.00;98754.80;109360;1252;67966;-68
2023/08/04 05:36:14;;;;;;;3.30;2.50;;;;;;;29.04;99.06;98759.63;109331;1254;72737;-68
2023/08/04 05:38:42;;;;;;;2.60;2.40;;;;;;;29.22;95.82;98753.79;109380;1254;60070;-68
2023/08/04 05:41:10;;;;;;;4.50;2.30;;;;;;;29.41;93.11;98750.75;109401;1253;60084;-67
2023/08/04 05:43:37;;;;;;;3.50;2.40;;;;;;;29.57;92.12;98744.84;109365;1253;74654;-68
2023/08/04 05:46:05;;;;;;;5.60;2.90;;;;;;;29.83;90.54;98742.02;109395;1252;68179;-67
2023/08/04 05:48:33;;;;;;;4.30;2.60;;;;;;;30.12;87.89;98739.28;109406;1253;71440;-68
2023/08/04 05:51:00;;;;;;;4.90;2.20;;;;;;;30.35;84.70;98741.55;109466;1253;59065;-67
2023/08/04 05:53:28;;;;;;;3.30;2.50;;;;;;;30.58;81.79;98739.12;109225;1253;59433;-67
2023/08/04 05:55:55;;;;;;;4.10;3.30;;;;;;;30.88;78.40;98737.51;109378;1253;74647;-67
2023/08/04 05:58:22;;;;;;;3.40;3.00;;;;;;;31.19;75.38;98736.41;109428;1253;66749;-68
2023/08/04 06:00:50;;;;;;;4.20;3.40;;;;;;;31.37;73.18;98738.87;109375;1253;71346;-68
2023/08/04 06:03:17;;;;;;;5.70;3.50;;;;;;;31.22;71.86;98735.60;109106;1253;60137;-68
2023/08/04 06:05:45;;;;;;;4.10;3.00;;;;;;;30.87;69.97;98733.94;109411;1254;59210;-68
2023/08/04 06:08:12;;;;;;;4.40;3.60;;;;;;;30.60;69.93;98736.70;109398;1252;73447;-67
2023/08/04 06:10:40;;;;;;;8.10;4.40;;;;;;;30.53;67.90;98734.58;109426;1252;66512;-68
2023/08/04 06:13:07;;;;;;;8.30;4.20;;;;;;;30.61;67.80;98738.98;109372;1253;72646;-68
2023/08/04 06:15:34;;;;;;;9.10;4.80;;;;;;;30.79;67.38;98743.88;109339;1252;58869;-69
2023/08/04 06:18:02;;;;;;;6.80;5.20;;;;;;;31.00;66.42;98741.31;109417;1254;60059;-69
2023/08/04 06:20:29;;;;;;;13.10;5.10;;;;;;;31.22;64.70;98743.91;109454;1252;74697;-69
2023/08/04 06:22:57;;;;;;;9.70;5.10;;;;;;;31.49;63.38;98751.36;109549;1253;66696;-68
2023/08/04 06:25:24;;;;;;;6.30;4.60;;;;;;;31.75;62.55;98753.41;109349;1254;72605;-68
2023/08/04 06:27:53;;;;;;;8.10;4.60;;;;;;;31.97;61.34;98752.87;109468;1252;58997;-61
2023/08/04 06:30:20;;;;;;;18.60;4.50;;;;;;;32.15;59.30;98756.81;109277;1253;58927;-57
2023/08/04 06:32:49;;;;;;;11.20;3.80;;;;;;;32.31;57.40;98758.70;109358;1253;73353;-61
2023/08/04 06:35:17;;;;;;;4.20;2.80;;;;;;;32.46;55.32;98754.69;109413;1252;67905;-58
2023/08/04 06:37:44;;;;;;;3.80;2.90;;;;;;;32.65;51.27;98760.64;109418;1252;71198;-61
2023/08/04 06:40:11;;;;;;;5.00;2.90;;;;;;;32.80;50.12;98760.27;109399;1253;58967;-59
2023/08/04 06:42:39;;;;;;;10.20;4.50;;;;;;;32.97;50.79;98755.81;109446;1252;60067;-60
2023/08/04 06:45:07;;;;;;;3.90;3.30;;;;;;;33.23;50.29;98754.87;109385;1253;74643;-68
2023/08/04 06:47:34;;;;;;;5.20;3.90;;;;;;;33.47;49.41;98747.77;109504;1253;68378;-68
2023/08/04 06:50:03;;;;;;;4.20;3.40;;;;;;;33.68;46.84;98745.88;109338;1254;72850;-67
2023/08/04 06:52:30;;;;;;;4.90;3.60;;;;;;;33.68;45.84;98747.92;109427;1253;59357;-69
2023/08/04 06:54:58;;;;;;;4.90;4.40;;;;;;;33.62;46.73;98747.78;109409;1253;61339;-68
2023/08/04 06:57:26;;;;;;;5.40;4.10;;;;;;;33.59;45.77;98745.29;109290;1253;176844;-68
2023/08/04 06:59:53;;;;;;;8.60;4.40;;;;;;;33.55;46.17;98747.51;109459;1253;66409;-67
2023/08/04 07:02:20;;;;;;;5.40;3.40;;;;;;;33.63;47.45;98748.58;109358;1253;72961;-68
2023/08/04 07:04:48;;;;;;;3.20;2.90;;;;;;;33.89;48.38;98751.70;109381;1253;59004;-69
2023/08/04 07:07:15;;;;;;;3.30;2.80;;;;;;;34.19;45.58;98754.81;109375;1253;58921;-68
2023/08/04 07:09:42;;;;;;;3.20;2.60;;;;;;;34.21;43.95;98757.46;109422;1253;74721;-69
2023/08/04 07:12:10;;;;;;;3.70;3.00;;;;;;;34.22;43.17;98763.90;109395;1253;67580;-69
2023/08/04 07:14:37;;;;;;;4.60;3.60;;;;;;;34.27;42.00;98773.19;109396;1254;72700;-68
2023/08/04 07:17:05;;;;;;;5.70;3.00;;;;;;;34.29;43.09;98781.27;109404;1252;59399;-69
2023/08/04 07:19:32;;;;;;;3.90;3.00;;;;;;;34.45;42.85;98782.42;109264;1254;59986;-69
2023/08/04 07:21:59;;;;;;;7.20;3.40;;;;;;;34.53;43.63;98780.02;109328;1254;74640;-69
2023/08/04 07:24:28;;;;;;;3.20;2.70;;;;;;;34.60;43.86;98777.98;109345;1254;67608;-69
2023/08/04 07:26:58;;;;;;;4.30;3.70;;;;;;;34.51;42.60;98780.98;109374;1252;71426;-68
2023/08/04 07:29:25;;;;;;;4.60;3.60;;;;;;;33.98;41.17;98777.13;109355;1253;60135;-68
2023/08/04 07:31:53;;;;;;;9.50;3.30;;;;;;;33.14;43.57;98774.27;109399;1253;59040;-68
2023/08/04 07:34:20;;;;;;;5.40;3.80;;;;;;;32.54;47.25;98780.64;109443;1253;73400;-68
2023/08/04 07:36:48;;;;;;;4.50;3.70;;;;;;;32.15;48.71;98787.30;109318;1253;68608;-70
2023/08/04 07:39:15;;;;;;;3.70;3.30;;;;;;;31.87;49.44;98792.02;109487;1252;71240;-70
2023/08/04 07:41:43;;;;;;;4.80;3.40;;;;;;;31.64;50.59;98793.63;109412;1253;60105;-68
2023/08/04 07:44:10;;;;;;;4.20;3.10;;;;;;;31.45;51.13;98793.59;109420;1253;60016;-69
2023/08/04 07:46:38;;;;;;;5.70;3.30;;;;;;;31.18;52.24;98789.80;109413;1253;74809;-69
2023/08/04 07:49:05;;;;;;;4.30;3.30;;;;;;;31.05;52.96;98789.48;109460;1252;67752;-69
2023/08/04 07:51:33;;;;;;;6.50;5.90;;;;;;;31.04;54.06;98783.57;109382;1253;71426;-69
2023/08/04 07:54:03;;;;;;;6.60;3.80;;;;;;;31.22;54.50;98784.30;109469;1252;58946;-69
2023/08/04 07:56:34;;;;;;;5.40;3.40;;;;;;;31.42;54.65;98780.32;109386;1253;60007;-68
2023/08/04 07:59:01;;;;;;;4.70;3.50;;;;;;;31.60;54.12;98781.58;109496;1253;74716;-69
2023/08/04 08:01:29;;;;;;;6.70;3.80;;;;;;;31.79;53.38;98788.77;109463;1252;67694;-68
2023/08/04 08:03:56;;;;;;;4.60;3.70;;;;;;;32.01;52.70;98785.45;109424;1254;73829;-68
2023/08/04 08:06:24;;;;;;;3.30;3.00;;;;;;;32.31;50.93;98786.13;109476;1253;60118;-69
2023/08/04 08:08:52;;;;;;;5.70;3.30;;;;;;;32.46;50.17;98792.35;109510;1252;59088;-69
2023/08/04 08:11:19;;;;;;;3.10;2.40;;;;;;;32.47;48.36;98798.67;109438;1253;74654;-69
2023/08/04 08:13:46;;;;;;;6.50;2.70;;;;;;;32.30;48.33;98801.31;109485;1252;66417;-68
2023/08/04 08:16:14;;;;;;;4.30;2.30;;;;;;;32.14;49.38;98802.87;109365;1254;72648;-69
2023/08/04 08:18:45;;;;;;;3.40;2.60;;;;;;;32.15;50.65;98805.07;109321;1253;59068;-68
2023/08/04 08:21:13;;;;;;;4.30;2.30;;;;;;;32.29;51.58;98805.77;109381;1253;58883;-69
2023/08/04 08:23:40;;;;;;;6.10;2.80;;;;;;;32.66;53.06;98806.12;109527;1253;73748;-69
2023/08/04 08:26:08;;;;;;;4.30;2.60;;;;;;;33.10;52.42;98806.55;109429;1253;67578;-69
2023/08/04 08:28:35;;;;;;;3.60;2.20;;;;;;;33.50;49.89;98810.95;109466;1253;71564;-69
2023/08/04 08:31:02;;;;;;;4.90;2.90;;;;;;;33.76;48.44;98810.30;109450;1254;58948;-69
2023/08/04 08:33:30;;;;;;;5.70;2.80;;;;;;;33.71;46.32;98809.02;109373;1254;59025;-69
2023/08/04 08:35:58;;;;;;;8.20;2.40;;;;;;;33.54;46.56;98813.48;109456;1254;74654;-70
2023/08/04 08:38:25;;;;;;;4.20;2.70;;;;;;;33.44;46.98;98814.08;109365;1254;66332;-70
2023/08/04 08:40:53;;;;;;;4.20;3.00;;;;;;;33.36;48.29;98811.61;109446;1253;72657;-69
2023/08/04 08:43:20;;;;;;;8.40;3.20;;;;;;;33.33;47.79;98810.69;109383;1253;58939;-69
2023/08/04 08:45:47;;;;;;;9.10;2.50;;;;;;;33.06;47.87;98817.80;109455;1254;60104;-69
2023/08/04 08:48:15;;;;;;;4.20;1.90;;;;;;;32.85;49.98;98817.77;109289;1254;73356;-69
2023/08/04 08:50:42;;;;;;;4.30;2.20;;;;;;;32.78;49.07;98822.73;109235;1254;68091;-69
2023/08/04 08:53:12;;;;;;;6.20;2.80;;;;;;;32.47;49.05;98825.48;109400;1254;72742;-70
2023/08/04 08:55:40;;;;;;;4.10;2.90;;;;;;;32.09;50.04;98825.34;109418;1253;60106;-70
2023/08/04 08:58:07;;;;;;;7.00;3.10;;;;;;;31.81;50.81;98826.33;109401;1254;59977;-69
2023/08/04 09:00:35;;;;;;;7.00;3.30;;;;;;;31.44;50.37;98822.48;109379;1253;74501;-69
2023/08/04 09:03:03;;;;;;;8.10;3.10;;;;;;;31.12;52.14;98822.34;109513;1253;67585;-69
2023/08/04 09:05:31;;;;;;;8.30;3.20;;;;;;;30.95;53.81;98820.55;109383;1254;72693;-69
2023/08/04 09:07:59;;;;;;;2.90;2.30;;;;;;;30.81;54.38;98829.05;109345;1252;60067;-70
2023/08/04 09:10:26;;;;;;;9.70;2.80;;;;;;;30.66;54.82;98831.05;109476;1253;60086;-69
2023/08/04 09:12:55;;;;;;;7.00;2.40;;;;;;;30.53;58.23;98833.13;109418;1253;74596;-69
2023/08/04 09:15:35;;;;;;;4.20;2.50;;;;;;;30.44;57.88;98832.27;109464;1253;66518;-69
2023/08/04 09:18:06;;;;;;;2.80;2.10;;;;;;;30.16;58.21;98834.73;109333;1253;72538;-69
2023/08/04 09:20:34;;;;;;;4.30;2.90;;;;;;;29.88;62.17;98835.83;109446;1253;59000;-69
2023/08/04 09:23:01;;;;;;;3.50;2.00;;;;;;;29.64;65.30;98835.11;109384;1254;60119;-69
2023/08/04 09:25:31;;;;;;;5.60;2.00;;;;;;;29.47;66.68;98842.02;109486;1252;74723;-69
2023/08/04 09:27:59;;;;;;;2.60;1.90;;;;;;;29.28;67.10;98843.27;109283;1254;68002;-69
2023/08/04 09:30:26;;;;;;;3.10;1.50;;;;;;;29.01;63.64;98836.38;109151;1254;72569;-69
2023/08/04 09:32:54;;;;;;;2.90;1.70;;;;;;;28.71;63.70;98835.06;109400;1253;60121;-69
2023/08/04 09:35:21;;;;;;;3.60;1.80;;;;;;;28.54;65.13;98843.85;109468;1252;59186;-69
2023/08/04 09:37:49;;;;;;;3.20;1.70;;;;;;;28.44;67.22;98846.51;109399;1255;74717;-69
2023/08/04 09:40:20;;;;;;;3.70;2.00;;;;;;;28.35;69.17;98844.47;109209;1253;67907;-69
2023/08/04 09:42:47;;;;;;;4.90;2.00;;;;;;;28.27;68.48;98850.74;109434;1253;71400;-69
2023/08/04 09:45:18;;;;;;;2.90;1.80;;;;;;;28.14;68.37;98853.10;109402;1253;59000;-69
2023/08/04 09:47:47;;;;;;;4.90;1.90;;;;;;;28.01;69.05;98851.45;109507;1253;60054;-69
2023/08/04 09:50:18;;;;;;;4.60;2.00;;;;;;;27.93;73.47;98857.02;109400;1252;73729;-69
2023/08/04 09:52:46;;;;;;;4.30;1.90;;;;;;;27.90;75.77;98855.44;109512;1253;67631;-69
2023/08/04 09:55:13;;;;;;;7.10;2.00;;;;;;;27.92;75.34;98861.86;109394;1254;72681;-69
2023/08/04 09:57:42;;;;;;;8.40;2.60;;;;;;;27.96;73.71;98863.92;109463;1253;59090;-69
2023/08/04 10:00:11;;;;;;;9.20;2.40;;;;;;;27.97;75.42;98867.35;109496;1252;60011;-69
2023/08/04 10:02:39;;;;;;;4.70;2.50;;;;;;;27.93;74.34;98869.10;109395;1253;73437;-69
2023/08/04 10:05:07;;;;;;;8.80;1.80;;;;;;;27.86;73.82;98874.35;109437;1253;66241;-69
2023/08/04 10:07:35;;;;;;;3.10;2.10;;;;;;;27.79;74.52;98879.50;109175;1253;71460;-69
2023/08/04 10:10:06;;;;;;;4.40;1.80;;;;;;;27.70;76.16;98888.98;109197;1253;58971;-69
2023/08/04 10:12:34;;;;;;;6.50;2.30;;;;;;;27.56;75.91;98889.00;109508;1254;58996;-69
2023/08/04 10:15:01;;;;;;;3.30;2.10;;;;;;;27.43;75.69;98890.60;109328;1254;74669;-69
2023/08/04 10:17:29;;;;;;;3.00;1.80;;;;;;;27.32;76.88;98890.94;109376;1253;66304;-69
2023/08/04 10:20:15;;;;;;;2.20;1.80;;;;;;;27.21;77.94;98898.23;109442;1254;72245;-69
2023/08/04 10:22:43;;;;;;;3.50;1.80;;;;;;;27.14;80.67;98899.04;109283;1253;60022;-69
2023/08/04 10:25:15;;;;;;;3.30;1.90;;;;;;;27.11;81.71;98902.90;109408;1253;60022;-69
2023/08/04 10:27:49;;;;;;;3.80;2.10;;;;;;;27.08;81.89;98901.02;109372;1252;73142;-69
2023/08/04 10:30:17;;;;;;;4.70;2.50;;;;;;;27.11;82.48;98898.85;109416;1253;67892;-68
2023/08/04 10:32:44;;;;;;;4.50;2.50;;;;;;;27.15;85.64;98898.71;109440;1253;73145;-69
2023/08/04 10:35:19;;;;;;;3.80;1.80;;;;;;;27.20;86.49;98899.52;109382;1253;59441;-69
2023/08/04 10:37:53;;;;;;;2.80;1.90;;;;;;;27.27;87.12;98903.14;109515;1253;58890;-69
2023/08/04 10:40:31;;;;;;;5.00;2.00;;;;;;;27.34;89.16;98903.05;109483;1253;73393;-69
2023/08/04 10:43:03;;;;;;;6.80;2.10;;;;;;;27.36;87.60;98897.95;109473;1253;66934;-69
2023/08/04 10:46:02;;;;;;;6.00;2.10;;;;;;;27.34;86.95;98900.10;109359;1253;71106;-69
2023/08/04 10:48:30;;;;;;;3.30;2.10;;;;;;;27.26;87.76;98900.80;109485;1252;59214;-69
2023/08/04 10:50:57;;;;;;;5.00;2.20;;;;;;;27.23;89.49;98902.49;109200;1252;58889;-69
2023/08/04 10:53:25;;;;;;;4.20;1.90;;;;;;;27.21;89.81;98899.18;109456;1252;74650;-69
2023/08/04 10:55:54;;;;;;;6.10;2.00;;;;;;;27.17;90.69;98896.16;109428;1253;66464;-69
2023/08/04 10:58:22;;;;;;;5.40;2.70;;;;;;;27.11;91.67;98900.55;109560;1253;72649;-69
2023/08/04 11:00:53;;;;;;;3.20;2.30;;;;;;;27.03;90.59;98901.85;109359;1254;60018;-69
2023/08/04 11:03:30;;;;;;;4.90;2.10;;;;;;;26.94;94.04;98907.13;109489;1253;60064;-69
2023/08/04 11:05:57;;;;;;;2.90;2.20;;;;;;;26.86;97.45;98905.05;109456;1254;73452;-69
2023/08/04 11:08:25;;;;;;;4.10;2.00;;;;;;;26.79;97.89;98909.42;109316;1254;67748;-69
2023/08/04 11:10:54;;;;;;;4.50;2.60;;;;;;;26.76;98.68;98917.13;109446;1252;71466;-69
2023/08/04 11:13:23;;;;;;;3.50;2.60;;;;;;;26.75;98.81;98918.06;109481;1254;59582;-69
2023/08/04 11:15:51;;;;;;;4.10;2.30;;;;;;;26.73;99.87;98923.76;109390;1254;60094;-69
2023/08/04 11:18:24;;;;;;;3.20;2.50;;;;;;;26.70;100.00;98924.59;109481;1254;74716;-69
2023/08/04 11:20:52;;;;;;;5.50;2.60;;;;;;;26.70;100.00;98927.27;109518;1253;66435;-68
2023/08/04 11:23:26;;;;;;;3.60;2.30;;;;;;;26.68;100.00;98925.88;109476;1252;70702;-68
2023/08/04 11:25:54;;;;;;;3.60;3.30;;;;;;;26.66;100.00;98928.52;109378;1253;58903;-68